Skip Navigation Links
NOAA logo - Click to go to the NOAA homepage
NOAA's National Weather Service
Alaska Aviation Weather Unit
  NWS logo - Click to go to the NWS homepage
Left Navbar Graphic     08 AKDT = 16 GMT

   
NOAA is celebrating 200 years of science, service, and stewardship. Visit the NOAA 200th celebration Web site to learn more.
USA.gov is the U.S. Government's official Web portal to all Federal, state and local government Web resources and services.
Facebook
NWS on Facebook

Important Change Regarding the AAWU Web Presence

 

Over the last several months, the AAWU has been working to navigate its webpages to a nationally supported server. Security, as well as other needs, have necessitated the change.  In the process, we have made an effort to enhance the functionality of our website, as well as some of our products. As of June 20, 2017, aawu.arh.noaa.gov will be discontinued. The new AAWU web address is weather.gov/aawu. It is now live and will run in-parallel with the old site until it is discontinued. Please send any feedback or questions regarding the new webpages to nws.ar.aawu.webauthors@noaa.gov.  Thank you for your patience during this time of transition.
AAWU Home :: Display TAF Add Bookmark
TAF CYSM 291138Z 2912/2924 VRB03KT P6SM SKC
     BECMG 2918/2920 22010KT
    RMK NXT FCST BY 291800Z=

METAR CYSM 291000Z VRB02KT 15SM SKC 04/M02 A3028 RMK SLP263= METAR CYSM 291100Z 14002KT 15SM SKC 03/M03 A3028 RMK SLP264= METAR CYSM 291200Z 15005KT 15SM SKC 06/M03 A3028 RMK SLP262= METAR CYSM 291300Z 16006KT 15SM FEW260 09/M01 A3027 RMK CI1 CI TR SLP260= METAR CYSM 291400Z 18007KT 15SM FEW140 FEW260 12/M02 A3027 RMK AC1CI1 AC TR CI TR SLP259= METAR CYSM 291500Z 16010KT 15SM FEW140 FEW260 14/M02 A3026 RMK AC1CI1 AC TR CI TR SLP255= METAR CYSM 291600Z 18009KT 150V210 15SM FEW260 16/M03 A3024 RMK CI1 CI TR SLP250=
 Alaska TAF Map

NOAA's National Weather Service
Alaska Aviation Weather Unit
6930 Sand Lake Road
Anchorage, AK 99502-1845
Disclaimer
Credits
Glossary
Privacy Policy
About Us
Career Opportunities
Contact AAWU Internet Services Site last modified: April, 17th 2012